Hartland, Minnesota
Current Conditions -  °F | °C
As of 5:14 AM on Tuesday 21 Oct 2014 (Local Time) from KAEL Reporting Station
Clear Clear  
Wind Chill: 36°   Ceiling: Unl
Heat Index: 36°   Visibility: 7mi
Dew Point: 36°   Wind: 3mph
Humidity: 100%   Direction: 50°NE
Pressure: 30.13"   Gusts: NA
Location:  43.8°N, 93.49°W
Report Text: KAEL 211014Z AUTO 05003KT 7SM CLR 02/02 A3013 RMK AO2
Loading
Personal Weather Stations






























Interactive Weather Map
Tropical Storm Tracking
New forecast layout! Learn more

10-Day Weather Forecast

Advertisements
Track Severe Weather on mobile